createdAt,value
2023-03-02T00:02:14.176Z,6.50
2023-03-02T00:04:50.254Z,6.50
2023-03-02T00:07:22.767Z,6.60
2023-03-02T00:09:50.735Z,6.60
2023-03-02T00:12:20.563Z,6.60
2023-03-02T00:14:48.132Z,6.60
2023-03-02T00:17:15.566Z,6.50
2023-03-02T00:19:44.816Z,6.50
2023-03-02T00:22:12.508Z,6.50
2023-03-02T00:24:40.066Z,6.50
2023-03-02T00:27:07.543Z,6.50
2023-03-02T00:29:35.024Z,6.50
2023-03-02T00:32:04.105Z,6.50
2023-03-02T00:34:34.522Z,6.50
2023-03-02T00:37:02.184Z,6.50
2023-03-02T00:39:30.421Z,6.50
2023-03-02T00:41:58.034Z,6.40
2023-03-02T00:44:25.656Z,6.40
2023-03-02T00:46:53.364Z,6.50
2023-03-02T00:49:20.838Z,6.50
2023-03-02T00:51:48.447Z,6.40
2023-03-02T00:54:16.055Z,6.40
2023-03-02T00:56:43.665Z,6.40
2023-03-02T00:59:30.947Z,6.40
2023-03-02T01:02:12.005Z,6.40
2023-03-02T01:04:42.392Z,6.50
2023-03-02T01:07:13.238Z,6.50
2023-03-02T01:09:42.586Z,6.50
2023-03-02T01:12:11.445Z,6.40
2023-03-02T01:14:41.814Z,6.40
2023-03-02T01:17:10.464Z,6.30
2023-03-02T01:19:38.663Z,6.30
2023-03-02T01:22:07.136Z,6.40
2023-03-02T01:24:34.645Z,6.30
2023-03-02T01:27:02.544Z,6.30
2023-03-02T01:29:30.196Z,6.30
2023-03-02T01:31:57.766Z,6.40
2023-03-02T01:34:25.343Z,6.40
2023-03-02T01:36:52.800Z,6.30
2023-03-02T01:39:22.572Z,6.30
2023-03-02T01:41:52.185Z,6.30
2023-03-02T01:44:50.026Z,6.40
2023-03-02T01:47:33.003Z,6.40
2023-03-02T01:50:20.690Z,6.60
2023-03-02T01:52:50.624Z,6.60
2023-03-02T01:55:24.821Z,6.50
2023-03-02T01:57:55.003Z,6.60
2023-03-02T02:00:37.688Z,6.60
2023-03-02T02:03:27.151Z,6.60
2023-03-02T02:06:13.445Z,6.60
2023-03-02T02:08:41.242Z,6.70
2023-03-02T02:11:08.916Z,6.70
2023-03-02T02:13:36.479Z,6.70
2023-03-02T02:16:04.598Z,6.60
2023-03-02T02:18:33.212Z,6.70
2023-03-02T02:21:00.673Z,6.70
2023-03-02T02:23:53.375Z,6.80
2023-03-02T02:26:23.495Z,6.80
2023-03-02T02:29:23.061Z,6.70
2023-03-02T02:32:03.388Z,6.70
2023-03-02T02:34:42.569Z,6.60
2023-03-02T02:37:33.876Z,6.60
2023-03-02T02:40:07.397Z,6.80
2023-03-02T02:42:44.646Z,6.80
2023-03-02T02:45:25.449Z,6.70
2023-03-02T02:47:56.006Z,6.60
2023-03-02T02:50:28.028Z,6.60
2023-03-02T02:53:14.771Z,6.70
2023-03-02T02:55:44.341Z,6.60
2023-03-02T02:58:22.797Z,6.60
2023-03-02T03:00:50.646Z,6.60
2023-03-02T03:03:34.604Z,6.60
2023-03-02T03:06:08.907Z,6.60
2023-03-02T03:08:52.308Z,6.60
2023-03-02T03:11:35.480Z,6.60
2023-03-02T03:14:08.722Z,6.50
2023-03-02T03:16:39.058Z,6.40
2023-03-02T03:19:19.310Z,6.40
2023-03-02T03:21:50.298Z,6.40
2023-03-02T03:24:19.129Z,6.30
2023-03-02T03:26:48.094Z,6.30
2023-03-02T03:29:17.929Z,6.30
2023-03-02T03:31:46.155Z,6.30
2023-03-02T03:34:14.898Z,6.30
2023-03-02T03:36:43.595Z,6.30
2023-03-02T03:39:12.713Z,6.20
2023-03-02T03:41:41.322Z,6.30
2023-03-02T03:44:10.279Z,6.20
2023-03-02T03:46:40.061Z,6.20
2023-03-02T03:49:07.830Z,6.30
2023-03-02T03:51:35.787Z,6.30
2023-03-02T03:54:08.344Z,6.30
2023-03-02T03:56:45.081Z,6.30
2023-03-02T03:59:20.437Z,6.30
2023-03-02T04:02:01.228Z,6.30
2023-03-02T04:04:36.318Z,6.30
2023-03-02T04:07:16.236Z,6.30
2023-03-02T04:09:44.996Z,6.30
2023-03-02T04:12:14.333Z,6.30
2023-03-02T04:14:50.540Z,6.40
2023-03-02T04:17:18.064Z,6.30
2023-03-02T04:19:47.830Z,6.30
2023-03-02T04:22:16.484Z,6.30
2023-03-02T04:24:44.209Z,6.30
2023-03-02T04:27:13.524Z,6.30
2023-03-02T04:29:41.808Z,6.30
2023-03-02T04:32:09.746Z,6.30
2023-03-02T04:34:39.191Z,6.30
2023-03-02T04:37:07.364Z,6.30
2023-03-02T04:39:35.000Z,6.30
2023-03-02T04:42:02.663Z,6.30
2023-03-02T04:44:30.150Z,6.30
2023-03-02T04:46:57.763Z,6.30
2023-03-02T04:49:25.269Z,6.30
2023-03-02T04:51:52.940Z,6.30
2023-03-02T04:54:26.538Z,6.30
2023-03-02T04:56:54.923Z,6.30
2023-03-02T04:59:28.251Z,6.30
2023-03-02T05:02:00.089Z,6.30
2023-03-02T05:04:28.838Z,6.30
2023-03-02T05:06:57.300Z,6.20
2023-03-02T05:09:28.699Z,6.20
2023-03-02T05:11:58.046Z,6.00
2023-03-02T05:14:26.368Z,6.00
2023-03-02T05:16:54.378Z,5.90
2023-03-02T05:19:22.355Z,5.90
2023-03-02T05:21:50.337Z,5.90
2023-03-02T05:24:18.105Z,5.80
2023-03-02T05:26:45.552Z,5.90
2023-03-02T05:29:13.007Z,5.90
2023-03-02T05:31:45.526Z,5.90
2023-03-02T05:34:16.205Z,6.00
2023-03-02T05:36:45.289Z,6.00
2023-03-02T05:39:13.278Z,6.00
2023-03-02T05:41:40.969Z,5.90
2023-03-02T05:44:10.328Z,5.90
2023-03-02T05:46:38.375Z,5.90
2023-03-02T05:49:06.000Z,5.80
2023-03-02T05:51:33.625Z,5.90
2023-03-02T05:54:01.191Z,5.90
2023-03-02T05:56:28.717Z,5.80
2023-03-02T05:58:56.173Z,5.80
2023-03-02T06:01:23.719Z,5.80
2023-03-02T06:03:51.186Z,5.70
2023-03-02T06:06:18.844Z,5.70
2023-03-02T06:08:46.412Z,5.50
2023-03-02T06:11:14.056Z,5.50
2023-03-02T06:13:41.503Z,5.50
2023-03-02T06:16:09.681Z,5.50
2023-03-02T06:18:40.380Z,5.40
2023-03-02T06:21:09.402Z,5.40
2023-03-02T06:23:36.889Z,5.40
2023-03-02T06:26:12.028Z,5.40
2023-03-02T06:28:51.860Z,5.40
2023-03-02T06:31:21.279Z,5.40
2023-03-02T06:33:48.914Z,5.50
2023-03-02T06:36:17.233Z,5.50
2023-03-02T06:38:44.758Z,5.50
2023-03-02T06:41:12.264Z,5.40
2023-03-02T06:43:39.808Z,5.40
2023-03-02T06:46:07.318Z,5.40
2023-03-02T06:48:34.827Z,5.30
2023-03-02T06:51:02.561Z,5.40
2023-03-02T06:53:30.136Z,5.40
2023-03-02T06:55:57.672Z,5.50
2023-03-02T06:58:25.183Z,5.50
2023-03-02T07:00:52.708Z,5.60
2023-03-02T07:03:20.537Z,5.70
2023-03-02T07:05:49.183Z,5.60
2023-03-02T07:08:16.668Z,5.60
2023-03-02T07:10:44.322Z,5.70
2023-03-02T07:13:11.798Z,5.60
2023-03-02T07:15:40.329Z,5.50
2023-03-02T07:18:07.829Z,5.60
2023-03-02T07:20:35.494Z,5.70
2023-03-02T07:23:03.006Z,5.70
2023-03-02T07:25:30.813Z,5.60
2023-03-02T07:27:58.879Z,5.70
2023-03-02T07:30:26.346Z,5.60
2023-03-02T07:32:53.809Z,5.60
2023-03-02T07:35:21.388Z,5.60
2023-03-02T07:37:48.851Z,5.60
2023-03-02T07:40:16.431Z,5.60
2023-03-02T07:42:43.983Z,5.60
2023-03-02T07:45:12.202Z,5.60
2023-03-02T07:47:39.628Z,5.60
2023-03-02T07:50:07.804Z,5.60
2023-03-02T07:52:35.391Z,5.60
2023-03-02T07:55:03.036Z,5.60
2023-03-02T07:57:30.449Z,5.70
2023-03-02T07:59:58.171Z,5.60
2023-03-02T08:02:25.867Z,5.60
2023-03-02T08:04:53.604Z,5.70
2023-03-02T08:07:21.156Z,5.70
2023-03-02T08:09:48.723Z,5.70
2023-03-02T08:12:16.173Z,5.70
2023-03-02T08:14:44.422Z,5.80
2023-03-02T08:17:11.912Z,5.80
2023-03-02T08:19:39.372Z,6.00
2023-03-02T08:22:06.854Z,5.90
2023-03-02T08:24:34.361Z,5.90
2023-03-02T08:27:03.253Z,6.10
2023-03-02T08:29:31.147Z,6.10
2023-03-02T08:31:59.238Z,6.10
2023-03-02T08:34:27.443Z,6.00
2023-03-02T08:36:55.056Z,6.00
2023-03-02T08:39:23.644Z,6.00
2023-03-02T08:41:54.143Z,5.90
2023-03-02T08:44:22.358Z,5.90
2023-03-02T08:46:51.038Z,6.00
2023-03-02T08:49:19.839Z,6.00
2023-03-02T08:51:53.454Z,6.10
2023-03-02T08:54:21.587Z,6.10
2023-03-02T08:56:50.241Z,6.10
2023-03-02T08:59:18.339Z,6.20
2023-03-02T09:01:45.914Z,6.20
2023-03-02T09:04:13.585Z,6.10
2023-03-02T09:06:43.831Z,6.20
2023-03-02T09:09:13.854Z,6.20
2023-03-02T09:11:42.366Z,6.20
2023-03-02T09:14:10.306Z,6.30
2023-03-02T09:16:38.240Z,6.40
2023-03-02T09:19:06.084Z,6.30
2023-03-02T09:21:33.919Z,6.50
2023-03-02T09:24:01.651Z,6.50
2023-03-02T09:26:29.197Z,6.50
2023-03-02T09:28:57.381Z,6.40
2023-03-02T09:31:25.176Z,6.60
2023-03-02T09:33:52.713Z,6.60
2023-03-02T09:36:22.937Z,6.60
2023-03-02T09:38:50.893Z,6.60
2023-03-02T09:41:21.082Z,6.80
2023-03-02T09:43:52.363Z,6.70
2023-03-02T09:46:44.412Z,6.70
2023-03-02T09:49:33.903Z,6.80
2023-03-02T09:52:29.104Z,6.80
2023-03-02T09:55:00.844Z,6.70
2023-03-02T09:57:34.442Z,6.80
2023-03-02T10:00:21.825Z,6.90
2023-03-02T10:03:02.428Z,6.80
2023-03-02T10:05:45.325Z,6.90
2023-03-02T10:08:20.753Z,6.80
2023-03-02T10:11:03.831Z,6.90
2023-03-02T10:13:47.569Z,6.90
2023-03-02T10:16:33.081Z,6.80
2023-03-02T10:19:16.728Z,6.70
2023-03-02T10:21:51.620Z,6.70
2023-03-02T10:24:46.164Z,6.70
2023-03-02T10:27:38.310Z,6.70
2023-03-02T10:30:21.036Z,6.70
2023-03-02T10:32:51.474Z,6.80
2023-03-02T10:35:23.079Z,6.80
2023-03-02T10:38:10.921Z,7.00
2023-03-02T10:40:43.595Z,7.00
2023-03-02T10:43:44.972Z,7.00
2023-03-02T10:46:14.232Z,7.00
2023-03-02T10:49:01.210Z,7.10
2023-03-02T10:51:31.226Z,7.00
2023-03-02T10:54:11.951Z,7.10
2023-03-02T10:56:43.236Z,6.90
2023-03-02T10:59:43.321Z,7.00
2023-03-02T11:02:10.885Z,7.00
2023-03-02T11:04:38.771Z,7.00
2023-03-02T11:07:12.248Z,7.10
2023-03-02T11:09:39.930Z,7.00
2023-03-02T11:12:15.921Z,6.90
2023-03-02T11:14:43.555Z,6.80
2023-03-02T11:17:34.185Z,6.80
2023-03-02T11:20:04.232Z,6.90
2023-03-02T11:22:45.417Z,6.90
2023-03-02T11:25:28.542Z,6.80
2023-03-02T11:28:36.521Z,6.90
2023-03-02T11:31:08.175Z,7.10
2023-03-02T11:33:44.297Z,7.30
2023-03-02T11:36:23.514Z,7.20
2023-03-02T11:38:55.386Z,7.30
2023-03-02T11:41:33.200Z,7.20
2023-03-02T11:44:07.794Z,7.20
2023-03-02T11:46:36.012Z,7.10
2023-03-02T11:49:07.313Z,7.20
2023-03-02T11:51:39.099Z,7.20
2023-03-02T11:54:19.354Z,7.20
2023-03-02T11:56:46.961Z,7.20
2023-03-02T11:59:20.242Z,7.30
2023-03-02T12:01:51.312Z,7.40
2023-03-02T12:04:46.860Z,7.40
2023-03-02T12:07:25.213Z,7.50
2023-03-02T12:10:07.655Z,7.50
2023-03-02T12:12:41.790Z,7.50
2023-03-02T12:15:46.231Z,7.50
2023-03-02T12:18:22.952Z,7.50
2023-03-02T12:21:09.841Z,7.40
2023-03-02T12:23:49.951Z,7.30
2023-03-02T12:26:20.320Z,7.20
2023-03-02T12:28:57.816Z,7.10
2023-03-02T12:31:26.924Z,7.10
2023-03-02T12:33:54.426Z,7.10
2023-03-02T12:36:35.609Z,7.10
2023-03-02T12:39:26.946Z,7.20
2023-03-02T12:42:33.403Z,7.30
2023-03-02T12:45:38.038Z,7.20
2023-03-02T12:48:30.516Z,7.20
2023-03-02T12:51:03.641Z,7.30
2023-03-02T12:53:31.699Z,7.40
2023-03-02T12:55:59.369Z,7.40
2023-03-02T12:58:29.358Z,7.60
2023-03-02T13:00:59.883Z,7.60
2023-03-02T13:03:30.562Z,7.70
2023-03-02T13:06:04.457Z,7.70
2023-03-02T13:08:32.557Z,7.80
2023-03-02T13:11:02.436Z,7.70
2023-03-02T13:13:33.071Z,7.70
2023-03-02T13:16:04.493Z,7.70
2023-03-02T13:18:34.638Z,7.60
2023-03-02T13:21:04.556Z,7.60
2023-03-02T13:23:34.078Z,7.60
2023-03-02T13:26:04.581Z,7.60
2023-03-02T13:28:35.024Z,7.60
2023-03-02T13:31:32.216Z,7.50
2023-03-02T13:33:59.918Z,7.50
2023-03-02T13:36:35.787Z,7.50
2023-03-02T13:39:07.059Z,7.20
2023-03-02T13:41:36.751Z,7.40
2023-03-02T13:44:26.345Z,7.40
2023-03-02T13:46:54.185Z,7.50
2023-03-02T13:49:35.765Z,7.60
2023-03-02T13:52:20.970Z,7.70
2023-03-02T13:54:48.513Z,7.60
2023-03-02T13:57:21.794Z,7.50
2023-03-02T13:59:49.714Z,7.50
2023-03-02T14:02:29.630Z,7.50
2023-03-02T14:04:57.577Z,7.50
2023-03-02T14:07:25.148Z,7.30
2023-03-02T14:09:52.909Z,7.30
2023-03-02T14:12:25.529Z,7.50
2023-03-02T14:14:55.865Z,7.50
2023-03-02T14:17:24.887Z,7.50
2023-03-02T14:19:53.203Z,7.50
2023-03-02T14:22:26.182Z,7.40
2023-03-02T14:24:53.814Z,7.40
2023-03-02T14:27:24.254Z,7.50
2023-03-02T14:29:51.895Z,7.50
2023-03-02T14:32:19.610Z,7.60
2023-03-02T14:34:47.212Z,7.50
2023-03-02T14:37:18.703Z,7.50
2023-03-02T14:39:53.382Z,7.60
2023-03-02T14:42:22.744Z,7.50
2023-03-02T14:44:51.917Z,7.60
2023-03-02T14:47:19.796Z,7.50
2023-03-02T14:49:49.413Z,7.50
2023-03-02T14:52:42.631Z,7.50
2023-03-02T14:55:23.753Z,7.50
2023-03-02T14:57:56.116Z,7.50
2023-03-02T15:00:24.283Z,7.60
2023-03-02T15:02:52.052Z,7.50
2023-03-02T15:05:19.674Z,7.50
2023-03-02T15:07:47.592Z,7.50
2023-03-02T15:10:17.591Z,7.50
2023-03-02T15:12:45.576Z,7.50
2023-03-02T15:15:13.610Z,7.30
2023-03-02T15:17:41.723Z,7.30
2023-03-02T15:20:15.885Z,7.30
2023-03-02T15:22:43.806Z,7.30
2023-03-02T15:25:11.417Z,7.50
2023-03-02T15:27:39.497Z,7.40
2023-03-02T15:30:07.560Z,7.40
2023-03-02T15:32:37.448Z,7.30
2023-03-02T15:35:05.585Z,7.30
2023-03-02T15:37:33.050Z,7.20
2023-03-02T15:40:00.598Z,7.30
2023-03-02T15:42:28.098Z,7.30
2023-03-02T15:44:55.597Z,7.30
2023-03-02T15:47:23.404Z,7.30
2023-03-02T15:49:50.897Z,7.30
2023-03-02T15:52:20.055Z,7.30
2023-03-02T15:54:47.613Z,7.30
2023-03-02T15:57:15.194Z,7.30
2023-03-02T15:59:43.631Z,7.30
2023-03-02T16:02:11.377Z,7.20
2023-03-02T16:04:38.900Z,7.30
2023-03-02T16:07:06.600Z,7.30
2023-03-02T16:09:34.177Z,7.30
2023-03-02T16:12:01.835Z,7.30
2023-03-02T16:14:29.303Z,7.30
2023-03-02T16:16:57.253Z,7.30
2023-03-02T16:19:25.110Z,7.20
2023-03-02T16:21:52.586Z,7.20
2023-03-02T16:24:20.275Z,7.20
2023-03-02T16:26:48.879Z,7.00
2023-03-02T16:29:16.398Z,7.10
2023-03-02T16:31:47.031Z,7.20
2023-03-02T16:34:15.148Z,7.20
2023-03-02T16:36:43.206Z,7.20
2023-03-02T16:39:12.487Z,7.10
2023-03-02T16:41:41.938Z,7.10
2023-03-02T16:44:14.619Z,7.10
2023-03-02T16:46:43.869Z,7.10
2023-03-02T16:49:13.221Z,7.10
2023-03-02T16:51:42.045Z,7.10
2023-03-02T16:54:10.534Z,7.20
2023-03-02T16:56:38.326Z,7.10
2023-03-02T16:59:05.846Z,7.10
2023-03-02T17:01:33.509Z,7.10
2023-03-02T17:04:02.795Z,7.10
2023-03-02T17:06:31.758Z,7.20
2023-03-02T17:08:59.617Z,7.10
2023-03-02T17:11:27.323Z,7.10
2023-03-02T17:13:54.788Z,7.10
2023-03-02T17:16:22.262Z,7.10
2023-03-02T17:18:49.746Z,7.10
2023-03-02T17:21:17.346Z,7.00
2023-03-02T17:23:47.945Z,7.00
2023-03-02T17:26:17.021Z,7.00
2023-03-02T17:28:44.783Z,7.00
2023-03-02T17:31:12.393Z,7.00
2023-03-02T17:33:40.060Z,7.00
2023-03-02T17:36:12.044Z,7.10
2023-03-02T17:38:40.468Z,7.10
2023-03-02T17:41:09.456Z,7.00
2023-03-02T17:43:38.829Z,7.00
2023-03-02T17:46:15.618Z,7.00
2023-03-02T17:48:43.614Z,7.00
2023-03-02T17:51:11.915Z,6.90
2023-03-02T17:53:39.480Z,6.80
2023-03-02T17:56:07.421Z,6.90
2023-03-02T17:58:44.600Z,6.90
2023-03-02T18:01:15.861Z,6.90
2023-03-02T18:03:45.141Z,6.90
2023-03-02T18:06:13.373Z,6.80
2023-03-02T18:08:41.167Z,6.90
2023-03-02T18:11:08.933Z,6.90
2023-03-02T18:13:36.825Z,6.90
2023-03-02T18:16:04.520Z,6.80
2023-03-02T18:18:32.364Z,6.80
2023-03-02T18:21:00.208Z,6.80
2023-03-02T18:23:28.093Z,6.80
2023-03-02T18:25:55.760Z,6.90
2023-03-02T18:28:23.273Z,6.90
2023-03-02T18:30:50.823Z,6.90
2023-03-02T18:33:18.436Z,6.90
2023-03-02T18:35:45.969Z,6.80
2023-03-02T18:38:13.486Z,6.80
2023-03-02T18:40:41.121Z,6.80
2023-03-02T18:43:08.619Z,6.80
2023-03-02T18:45:36.123Z,6.80
2023-03-02T18:48:03.847Z,6.80
2023-03-02T18:50:32.667Z,6.70
2023-03-02T18:53:00.992Z,6.80
2023-03-02T18:55:28.499Z,6.70
2023-03-02T18:57:56.101Z,6.80
2023-03-02T19:00:28.204Z,6.80
2023-03-02T19:02:56.960Z,6.70
2023-03-02T19:05:26.871Z,6.80
2023-03-02T19:07:54.976Z,6.80
2023-03-02T19:10:22.573Z,6.80
2023-03-02T19:12:50.433Z,6.70
2023-03-02T19:15:18.279Z,6.70
2023-03-02T19:17:46.063Z,6.70
2023-03-02T19:20:15.851Z,6.70
2023-03-02T19:22:43.424Z,6.70
2023-03-02T19:25:11.389Z,6.50
2023-03-02T19:27:39.273Z,6.60
2023-03-02T19:30:09.405Z,6.60
2023-03-02T19:32:37.984Z,6.60
2023-03-02T19:35:06.020Z,6.70
2023-03-02T19:37:33.623Z,6.60
2023-03-02T19:40:01.313Z,6.60
2023-03-02T19:42:30.437Z,6.70
2023-03-02T19:44:58.189Z,6.70
2023-03-02T19:47:25.885Z,6.70
2023-03-02T19:49:53.361Z,6.70
2023-03-02T19:52:20.880Z,6.70
2023-03-02T19:54:48.676Z,6.60
2023-03-02T19:57:16.377Z,6.60
2023-03-02T19:59:43.863Z,6.70
2023-03-02T20:02:11.402Z,6.70
2023-03-02T20:04:39.080Z,6.70
2023-03-02T20:07:06.887Z,6.70
2023-03-02T20:09:34.764Z,6.70
2023-03-02T20:12:02.874Z,6.70
2023-03-02T20:14:34.121Z,6.60
2023-03-02T20:17:04.983Z,6.70
2023-03-02T20:19:32.735Z,6.70
2023-03-02T20:22:02.725Z,6.70
2023-03-02T20:24:30.591Z,6.60
2023-03-02T20:26:58.223Z,6.50
2023-03-02T20:29:26.972Z,6.60
2023-03-02T20:31:54.713Z,6.50
2023-03-02T20:34:22.271Z,6.60
2023-03-02T20:36:50.158Z,6.50
2023-03-02T20:39:39.083Z,6.60
2023-03-02T20:42:07.496Z,6.60
2023-03-02T20:44:35.420Z,6.60
2023-03-02T20:47:09.015Z,6.70
2023-03-02T20:49:38.003Z,6.60
2023-03-02T20:52:06.857Z,6.60
2023-03-02T20:54:38.754Z,6.50
2023-03-02T20:57:07.968Z,6.50
2023-03-02T20:59:37.243Z,6.50
2023-03-02T21:02:05.900Z,6.40
2023-03-02T21:04:34.549Z,6.40
2023-03-02T21:07:02.397Z,6.50
2023-03-02T21:09:29.924Z,6.50
2023-03-02T21:11:58.866Z,6.50
2023-03-02T21:14:27.590Z,6.50
2023-03-02T21:16:55.199Z,6.50
2023-03-02T21:19:22.809Z,6.50
2023-03-02T21:21:50.406Z,6.50
2023-03-02T21:24:18.333Z,6.60
2023-03-02T21:26:47.369Z,6.50
2023-03-02T21:29:16.944Z,6.60
2023-03-02T21:31:44.704Z,6.60
2023-03-02T21:34:16.027Z,6.50
2023-03-02T21:36:43.753Z,6.60
2023-03-02T21:39:12.108Z,6.60
2023-03-02T21:41:40.462Z,6.50
2023-03-02T21:44:08.163Z,6.50
2023-03-02T21:46:37.038Z,6.50
2023-03-02T21:49:05.175Z,6.50
2023-03-02T21:51:32.843Z,6.50
2023-03-02T21:54:00.321Z,6.40
2023-03-02T21:56:27.960Z,6.50
2023-03-02T21:58:57.325Z,6.50
2023-03-02T22:01:26.651Z,6.50
2023-03-02T22:03:54.245Z,6.50
2023-03-02T22:06:28.226Z,6.50
2023-03-02T22:08:57.030Z,6.40
2023-03-02T22:11:27.355Z,6.40
2023-03-02T22:13:57.822Z,6.50
2023-03-02T22:16:35.529Z,6.50
2023-03-02T22:19:17.826Z,6.50
2023-03-02T22:21:50.038Z,6.40
2023-03-02T22:24:29.163Z,6.40
2023-03-02T22:27:27.336Z,6.40
2023-03-02T22:29:59.136Z,6.30
2023-03-02T22:32:29.665Z,6.40
2023-03-02T22:34:59.813Z,6.40
2023-03-02T22:37:29.594Z,6.40
2023-03-02T22:40:00.890Z,6.30
2023-03-02T22:42:31.061Z,6.40
2023-03-02T22:45:15.466Z,6.40
2023-03-02T22:47:44.070Z,6.40
2023-03-02T22:50:24.844Z,6.40
2023-03-02T22:52:53.274Z,6.40
2023-03-02T22:55:42.457Z,6.40
2023-03-02T22:58:30.299Z,6.40
2023-03-02T23:01:02.112Z,6.30
2023-03-02T23:03:41.479Z,6.30
2023-03-02T23:06:31.875Z,6.30
2023-03-02T23:09:05.517Z,6.30
2023-03-02T23:11:39.497Z,6.30
2023-03-02T23:14:27.010Z,6.30
2023-03-02T23:16:57.294Z,6.30
2023-03-02T23:19:29.853Z,6.20
2023-03-02T23:21:58.612Z,6.20
2023-03-02T23:24:26.219Z,6.10
2023-03-02T23:26:54.026Z,6.00
2023-03-02T23:29:22.042Z,6.00
2023-03-02T23:31:50.003Z,5.90
2023-03-02T23:34:17.730Z,5.90
2023-03-02T23:36:45.317Z,5.90
2023-03-02T23:39:13.097Z,5.80
2023-03-02T23:41:40.707Z,5.70
2023-03-02T23:44:08.727Z,5.70
2023-03-02T23:46:36.197Z,5.60
2023-03-02T23:49:03.845Z,5.60
2023-03-02T23:51:31.581Z,5.60
2023-03-02T23:53:59.212Z,5.50
2023-03-02T23:56:26.691Z,5.50
2023-03-02T23:58:54.344Z,5.40
